Time;durP1;ratioP1;P1;durP2;ratioP2;P2;SDS_P1;SDS_P2;PMS_P1;PMS_P2;Temp;Humidity;BMP_temperature;BMP_pressure;BME280_temperature;BME280_humidity;BME280_pressure;Samples;Min_cycle;Max_cycle;Signal;HPM_P1;HPM_P2
2023/12/29 00:02:22;;;;;;;0.60;0.60;;;11.40;99.90;;;;;;7394610;19;20161;-77
2023/12/29 00:04:48;;;;;;;0.98;0.85;;;11.50;99.90;;;;;;7392383;19;20635;-78
2023/12/29 00:07:15;;;;;;;0.40;0.40;;;11.50;99.90;;;;;;7395031;19;20164;-78
2023/12/29 00:09:41;;;;;;;0.90;0.60;;;11.50;99.90;;;;;;7394728;19;20135;-78
2023/12/29 00:12:08;;;;;;;1.40;0.75;;;11.60;99.90;;;;;;7398181;19;20181;-78
2023/12/29 00:14:37;;;;;;;1.45;0.75;;;11.50;99.90;;;;;;7394386;19;20623;-78
2023/12/29 00:17:03;;;;;;;1.27;0.60;;;11.30;99.90;;;;;;7394158;19;20214;-78
2023/12/29 00:19:29;;;;;;;0.65;0.60;;;11.30;99.90;;;;;;7393377;19;20154;-77
2023/12/29 00:21:54;;;;;;;1.15;0.63;;;11.40;99.90;;;;;;7393603;19;20473;-78
2023/12/29 00:24:20;;;;;;;0.55;0.45;;;11.50;99.90;;;;;;7393204;19;20162;-77
2023/12/29 00:26:47;;;;;;;0.73;0.73;;;11.60;99.90;;;;;;7395979;19;20143;-77
2023/12/29 00:29:15;;;;;;;0.73;0.63;;;11.50;99.90;;;;;;7393163;19;20157;-78
2023/12/29 00:31:41;;;;;;;0.43;0.43;;;11.60;99.90;;;;;;7393662;19;20134;-77
2023/12/29 00:34:07;;;;;;;0.60;0.60;;;11.50;99.90;;;;;;7393862;19;20150;-78
2023/12/29 00:36:33;;;;;;;1.40;0.55;;;11.50;99.90;;;;;;7395433;19;20155;-78
2023/12/29 00:38:58;;;;;;;0.70;0.70;;;11.40;99.90;;;;;;7394075;19;20198;-78
2023/12/29 00:41:24;;;;;;;0.98;0.65;;;11.40;99.90;;;;;;7394922;19;20127;-78
2023/12/29 00:43:50;;;;;;;0.47;0.47;;;11.40;99.90;;;;;;7392015;19;20541;-78
2023/12/29 00:46:15;;;;;;;0.80;0.68;;;11.50;99.90;;;;;;7394597;19;20155;-78
2023/12/29 00:48:42;;;;;;;1.05;0.70;;;11.60;99.90;;;;;;7396244;19;20493;-78
2023/12/29 00:51:08;;;;;;;1.20;0.57;;;11.50;99.90;;;;;;7396220;19;20165;-78
2023/12/29 00:53:35;;;;;;;0.40;0.40;;;11.50;99.90;;;;;;7393567;19;20146;-77
2023/12/29 00:56:01;;;;;;;0.95;0.65;;;11.60;99.90;;;;;;7393379;19;20179;-78
2023/12/29 00:58:27;;;;;;;0.52;0.52;;;11.60;99.90;;;;;;7391876;19;20214;-79
2023/12/29 01:00:53;;;;;;;1.30;0.80;;;11.60;99.90;;;;;;7395285;19;20134;-78
2023/12/29 01:03:18;;;;;;;0.93;0.80;;;11.50;99.90;;;;;;7392295;19;20142;-78
2023/12/29 01:05:44;;;;;;;1.02;0.57;;;11.70;99.90;;;;;;7393811;19;20158;-78
2023/12/29 01:08:10;;;;;;;0.60;0.60;;;11.60;99.90;;;;;;7392535;19;20159;-77
2023/12/29 01:10:36;;;;;;;1.33;0.93;;;11.50;99.90;;;;;;7392034;19;20159;-77
2023/12/29 01:13:01;;;;;;;0.40;0.40;;;11.60;99.90;;;;;;7394475;19;20833;-77
2023/12/29 01:15:28;;;;;;;1.20;0.50;;;11.60;99.90;;;;;;7394047;19;20138;-79
2023/12/29 01:17:54;;;;;;;0.90;0.82;;;11.50;99.90;;;;;;7392767;19;20273;-78
2023/12/29 01:20:19;;;;;;;0.90;0.88;;;11.60;99.90;;;;;;7390400;19;20651;-79
2023/12/29 01:22:45;;;;;;;1.05;0.85;;;11.60;99.90;;;;;;7391971;19;20139;-78
2023/12/29 01:25:11;;;;;;;0.60;0.57;;;11.70;99.90;;;;;;7392888;19;20150;-78
2023/12/29 01:27:37;;;;;;;0.77;0.70;;;11.50;99.90;;;;;;7391379;19;20543;-79
2023/12/29 01:30:03;;;;;;;0.70;0.50;;;11.50;99.90;;;;;;7388972;19;20623;-79
2023/12/29 01:32:29;;;;;;;0.80;0.75;;;11.40;99.90;;;;;;7391821;19;20135;-78
2023/12/29 01:34:54;;;;;;;0.98;0.85;;;11.40;99.90;;;;;;7392912;19;20134;-78
2023/12/29 01:37:20;;;;;;;0.55;0.50;;;11.50;99.90;;;;;;7392762;19;20619;-79
2023/12/29 01:39:46;;;;;;;0.90;0.68;;;11.30;99.90;;;;;;7393049;19;20140;-79
2023/12/29 01:42:12;;;;;;;0.75;0.75;;;11.40;99.90;;;;;;7390910;19;20521;-78
2023/12/29 01:44:38;;;;;;;0.50;0.50;;;11.30;99.90;;;;;;7390797;19;20139;-79
2023/12/29 01:47:05;;;;;;;0.63;0.63;;;11.40;99.90;;;;;;7393623;19;20134;-79
2023/12/29 01:49:33;;;;;;;0.55;0.50;;;11.50;99.90;;;;;;7391559;19;20175;-79
2023/12/29 01:52:00;;;;;;;0.77;0.63;;;11.40;99.90;;;;;;7391945;19;20438;-78
2023/12/29 01:54:32;;;;;;;1.50;0.73;;;11.50;99.90;;;;;;7393576;19;20680;-78
2023/12/29 01:57:00;;;;;;;0.70;0.70;;;11.40;99.90;;;;;;7393341;19;20138;-79
2023/12/29 01:59:27;;;;;;;0.68;0.63;;;11.50;99.90;;;;;;7392076;19;20226;-77
2023/12/29 02:01:55;;;;;;;0.75;0.75;;;11.50;99.90;;;;;;7390727;19;20580;-77
2023/12/29 02:04:24;;;;;;;0.75;0.60;;;11.60;99.90;;;;;;7390544;19;20182;-78
2023/12/29 02:06:50;;;;;;;1.17;0.57;;;11.30;99.90;;;;;;7389260;19;20146;-77
2023/12/29 02:09:17;;;;;;;0.55;0.55;;;11.50;99.90;;;;;;7390964;19;20137;-78
2023/12/29 02:11:43;;;;;;;1.50;0.90;;;11.60;99.90;;;;;;7392085;19;20256;-77
2023/12/29 02:14:10;;;;;;;0.60;0.60;;;11.70;99.90;;;;;;7389980;19;20134;-80
2023/12/29 02:16:56;;;;;;;0.50;0.50;;;11.50;99.90;;;;;;7391254;19;20163;-78
2023/12/29 02:19:30;;;;;;;0.85;0.75;;;11.60;99.90;;;;;;7391569;19;20134;-78
2023/12/29 02:21:56;;;;;;;1.25;0.98;;;11.60;99.90;;;;;;7390349;19;20134;-79
2023/12/29 02:24:22;;;;;;;0.80;0.60;;;11.60;99.90;;;;;;7390460;19;20166;-78
2023/12/29 02:26:53;;;;;;;0.60;0.60;;;11.60;99.90;;;;;;7390846;19;20178;-79
2023/12/29 02:29:22;;;;;;;0.80;0.70;;;11.60;99.90;;;;;;7391954;19;20131;-78
2023/12/29 02:31:52;;;;;;;0.97;0.90;;;11.60;99.90;;;;;;7393303;19;20611;-78
2023/12/29 02:34:20;;;;;;;0.50;0.50;;;11.50;99.90;;;;;;7399717;19;20167;-78
2023/12/29 02:36:48;;;;;;;0.65;0.65;;;11.60;99.90;;;;;;7399416;19;20596;-77
2023/12/29 02:39:14;;;;;;;1.13;0.68;;;11.50;99.90;;;;;;7398229;19;20178;-79
2023/12/29 02:41:40;;;;;;;0.60;0.57;;;11.60;99.90;;;;;;7397266;19;20142;-77
2023/12/29 02:44:05;;;;;;;1.50;0.77;;;11.60;99.90;;;;;;7397357;19;21442;-77
2023/12/29 02:46:31;;;;;;;1.92;0.82;;;11.50;99.90;;;;;;7398631;19;20223;-78
2023/12/29 02:48:59;;;;;;;0.67;0.60;;;11.50;99.90;;;;;;7397521;19;20134;-79
2023/12/29 02:51:25;;;;;;;0.60;0.60;;;11.50;99.90;;;;;;7397699;19;20166;-79
2023/12/29 02:53:50;;;;;;;0.80;0.80;;;11.60;99.90;;;;;;7397314;19;20146;-78
2023/12/29 02:56:16;;;;;;;0.90;0.70;;;11.60;99.90;;;;;;7396615;19;20151;-78
2023/12/29 02:58:42;;;;;;;0.60;0.60;;;11.50;99.90;;;;;;7396491;19;20250;-78
2023/12/29 03:01:08;;;;;;;1.17;0.77;;;11.50;99.90;;;;;;7398239;19;20126;-78
2023/12/29 03:03:34;;;;;;;0.83;0.67;;;11.60;99.90;;;;;;7395798;19;20181;-78
2023/12/29 03:06:00;;;;;;;2.70;0.70;;;11.60;99.90;;;;;;7398202;19;20161;-79
2023/12/29 03:08:25;;;;;;;0.80;0.80;;;11.50;99.90;;;;;;7396821;19;20151;-79
2023/12/29 03:10:51;;;;;;;1.08;0.68;;;11.40;99.90;;;;;;7399006;19;20575;-79
2023/12/29 03:13:17;;;;;;;3.50;0.80;;;11.50;99.90;;;;;;7396518;19;20135;-77
2023/12/29 03:15:42;;;;;;;0.70;0.60;;;11.50;99.90;;;;;;7396924;19;20135;-79
2023/12/29 03:18:08;;;;;;;0.70;0.60;;;11.40;99.90;;;;;;7397245;19;20177;-78
2023/12/29 03:20:34;;;;;;;0.95;0.85;;;11.50;99.90;;;;;;7399907;19;20142;-79
2023/12/29 03:23:00;;;;;;;0.73;0.73;;;11.50;99.90;;;;;;7395366;19;20581;-79
2023/12/29 03:25:25;;;;;;;0.60;0.60;;;11.40;99.90;;;;;;7398839;19;20135;-79
2023/12/29 03:27:51;;;;;;;0.98;0.90;;;11.50;99.90;;;;;;7397675;19;20134;-79
2023/12/29 03:30:17;;;;;;;1.42;0.70;;;11.50;99.90;;;;;;7396110;19;20166;-78
2023/12/29 03:32:42;;;;;;;0.70;0.70;;;11.40;99.90;;;;;;7396787;19;20142;-78
2023/12/29 03:35:08;;;;;;;1.40;0.60;;;11.40;99.90;;;;;;7396364;19;20273;-78
2023/12/29 03:37:34;;;;;;;0.63;0.63;;;11.40;99.90;;;;;;7396388;19;20472;-79
2023/12/29 03:39:59;;;;;;;0.90;0.80;;;11.30;99.90;;;;;;7395374;19;20139;-78
2023/12/29 03:42:25;;;;;;;0.80;0.70;;;11.30;99.90;;;;;;7391610;19;20182;-79
2023/12/29 03:44:51;;;;;;;0.60;0.60;;;11.30;99.90;;;;;;7395086;19;20143;-78
2023/12/29 03:47:17;;;;;;;0.50;0.50;;;11.30;99.90;;;;;;7395992;19;20149;-78
2023/12/29 03:49:42;;;;;;;0.60;0.60;;;11.10;99.90;;;;;;7394106;19;20127;-78
2023/12/29 03:52:08;;;;;;;0.38;0.38;;;11.20;99.90;;;;;;7395024;19;20135;-78
2023/12/29 03:54:34;;;;;;;0.80;0.80;;;11.30;99.90;;;;;;7398192;19;20131;-78
2023/12/29 03:57:00;;;;;;;0.98;0.80;;;11.30;99.90;;;;;;7394853;19;20153;-79
2023/12/29 03:59:26;;;;;;;0.50;0.50;;;11.40;99.90;;;;;;7395833;19;20131;-78
2023/12/29 04:01:51;;;;;;;0.70;0.50;;;11.50;99.90;;;;;;7393569;19;20565;-77
2023/12/29 04:04:17;;;;;;;0.80;0.70;;;11.30;99.90;;;;;;7393653;19;20563;-77
2023/12/29 04:06:43;;;;;;;0.90;0.80;;;11.20;99.90;;;;;;7395442;19;20202;-79
2023/12/29 04:09:08;;;;;;;0.55;0.55;;;11.30;99.90;;;;;;7394166;19;20552;-78
2023/12/29 04:11:34;;;;;;;0.75;0.63;;;11.30;99.90;;;;;;7393452;19;20131;-78
2023/12/29 04:14:00;;;;;;;0.50;0.50;;;11.30;99.90;;;;;;7395894;19;21033;-79
2023/12/29 04:16:26;;;;;;;2.10;0.90;;;11.40;99.90;;;;;;7395936;19;20231;-78
2023/12/29 04:18:52;;;;;;;0.57;0.55;;;11.30;99.90;;;;;;7393691;19;20214;-78
2023/12/29 04:21:18;;;;;;;1.13;0.60;;;11.40;99.90;;;;;;7394258;19;20171;-78
2023/12/29 04:23:43;;;;;;;1.50;0.73;;;11.30;99.90;;;;;;7391926;19;20127;-78
2023/12/29 04:26:09;;;;;;;0.60;0.60;;;11.30;99.90;;;;;;7394724;19;20146;-78
2023/12/29 04:28:35;;;;;;;0.70;0.47;;;11.30;99.90;;;;;;7394316;19;20190;-77
2023/12/29 04:31:01;;;;;;;0.88;0.40;;;11.30;99.90;;;;;;7393083;19;20196;-77
2023/12/29 04:33:27;;;;;;;0.50;0.50;;;11.40;99.90;;;;;;7393906;19;20139;-78
2023/12/29 04:35:53;;;;;;;0.50;0.50;;;11.40;99.90;;;;;;7393965;19;20222;-78
2023/12/29 04:38:19;;;;;;;1.00;0.90;;;11.40;99.90;;;;;;7393982;19;20150;-78
2023/12/29 04:40:49;;;;;;;1.40;0.83;;;11.40;99.90;;;;;;7393474;19;20146;-77
2023/12/29 04:43:15;;;;;;;1.08;0.98;;;11.40;99.90;;;;;;7391830;19;20467;-78
2023/12/29 04:45:40;;;;;;;1.10;0.60;;;11.40;99.90;;;;;;7393711;19;20147;-78
2023/12/29 04:48:06;;;;;;;0.90;0.60;;;11.30;99.90;;;;;;7391921;19;20189;-79
2023/12/29 04:50:32;;;;;;;1.77;1.08;;;11.30;99.90;;;;;;7393842;19;20131;-78
2023/12/29 04:52:58;;;;;;;0.65;0.65;;;11.20;99.90;;;;;;7392847;19;20142;-79
2023/12/29 04:55:23;;;;;;;0.60;0.50;;;11.20;99.90;;;;;;7394071;19;20175;-78
2023/12/29 04:57:49;;;;;;;0.93;0.50;;;11.40;99.90;;;;;;7392421;19;20433;-78
2023/12/29 05:00:15;;;;;;;0.60;0.60;;;11.40;99.90;;;;;;7394780;19;20134;-78
2023/12/29 05:02:41;;;;;;;0.75;0.75;;;11.40;99.90;;;;;;7392518;19;20176;-79
2023/12/29 05:05:07;;;;;;;0.50;0.50;;;11.40;99.90;;;;;;7392154;19;20181;-78
2023/12/29 05:07:33;;;;;;;0.82;0.73;;;11.40;99.90;;;;;;7394370;19;20652;-78
2023/12/29 05:09:59;;;;;;;0.97;0.80;;;11.40;99.90;;;;;;7392550;19;20163;-78
2023/12/29 05:12:24;;;;;;;0.80;0.70;;;11.50;99.90;;;;;;7392804;19;20202;-79
2023/12/29 05:14:50;;;;;;;0.55;0.55;;;11.40;99.90;;;;;;7393038;19;20147;-79
2023/12/29 05:17:16;;;;;;;0.32;0.32;;;11.40;99.90;;;;;;7392220;19;20848;-80
2023/12/29 05:19:42;;;;;;;2.47;0.60;;;11.30;99.90;;;;;;7392432;19;20148;-79
2023/12/29 05:22:07;;;;;;;0.50;0.50;;;11.40;99.90;;;;;;7392562;19;20130;-79
2023/12/29 05:24:33;;;;;;;0.50;0.50;;;11.60;99.90;;;;;;7392787;19;20153;-79
2023/12/29 05:26:59;;;;;;;0.60;0.60;;;11.50;99.90;;;;;;7392537;19;20159;-79
2023/12/29 05:29:25;;;;;;;0.60;0.60;;;11.40;99.90;;;;;;7392816;19;20157;-79
2023/12/29 05:31:51;;;;;;;0.77;0.77;;;11.40;99.90;;;;;;7391554;19;20198;-78
2023/12/29 05:34:17;;;;;;;1.38;0.70;;;11.40;99.90;;;;;;7392003;19;20150;-80
2023/12/29 05:36:42;;;;;;;0.50;0.50;;;11.40;99.90;;;;;;7392778;19;20142;-79
2023/12/29 05:39:08;;;;;;;0.60;0.60;;;11.40;99.90;;;;;;7393295;19;20147;-79
2023/12/29 05:41:34;;;;;;;0.57;0.57;;;11.40;99.90;;;;;;7393355;19;20146;-80
2023/12/29 05:44:01;;;;;;;0.67;0.67;;;11.40;99.90;;;;;;7390149;19;20163;-79
2023/12/29 05:46:26;;;;;;;0.60;0.60;;;11.40;99.90;;;;;;7393283;19;20214;-79
2023/12/29 05:48:53;;;;;;;0.83;0.67;;;11.50;99.90;;;;;;7392152;19;20607;-79
2023/12/29 05:51:19;;;;;;;0.43;0.40;;;11.50;99.90;;;;;;7393622;19;20162;-78
2023/12/29 05:53:45;;;;;;;0.70;0.60;;;11.50;99.90;;;;;;7392226;19;20644;-79
2023/12/29 05:56:15;;;;;;;1.27;0.77;;;11.40;99.90;;;;;;7392811;19;21027;-79
2023/12/29 05:58:42;;;;;;;0.50;0.50;;;11.30;99.90;;;;;;7392563;19;20173;-79
2023/12/29 06:01:08;;;;;;;1.00;0.85;;;11.30;99.90;;;;;;7394268;19;20142;-80
2023/12/29 06:03:34;;;;;;;1.33;0.93;;;11.40;99.90;;;;;;7390022;19;20146;-79
2023/12/29 06:06:00;;;;;;;0.70;0.70;;;11.50;99.90;;;;;;7390746;19;20175;-79
2023/12/29 06:08:26;;;;;;;0.60;0.60;;;11.50;99.90;;;;;;7390698;19;20210;-79
2023/12/29 06:10:52;;;;;;;0.60;0.50;;;11.50;99.90;;;;;;7391098;19;20209;-79
2023/12/29 06:13:18;;;;;;;0.97;0.73;;;11.50;99.90;;;;;;7391581;19;20150;-81
2023/12/29 06:15:43;;;;;;;0.73;0.73;;;11.50;99.90;;;;;;7390799;19;20464;-80
2023/12/29 06:18:09;;;;;;;2.03;1.05;;;11.40;99.90;;;;;;7391194;19;20143;-80
2023/12/29 06:20:35;;;;;;;0.57;0.57;;;11.50;99.90;;;;;;7392684;19;20611;-80
2023/12/29 06:23:01;;;;;;;0.70;0.60;;;11.50;99.90;;;;;;7391000;19;20203;-80
2023/12/29 06:25:27;;;;;;;1.48;0.85;;;11.40;99.90;;;;;;7392970;19;20785;-80
2023/12/29 06:27:54;;;;;;;0.60;0.60;;;11.30;99.90;;;;;;7391951;19;20154;-80
2023/12/29 06:30:20;;;;;;;0.40;0.40;;;11.30;99.90;;;;;;7391828;19;20139;-79
2023/12/29 06:32:46;;;;;;;0.67;0.63;;;11.20;99.90;;;;;;7392109;19;20130;-79
2023/12/29 06:35:13;;;;;;;0.70;0.70;;;11.30;99.90;;;;;;7393135;19;20139;-79
2023/12/29 06:37:40;;;;;;;0.90;0.70;;;11.40;99.90;;;;;;7391596;19;20173;-79
2023/12/29 06:40:07;;;;;;;0.80;0.70;;;11.40;99.90;;;;;;7390386;19;20225;-81
2023/12/29 06:42:33;;;;;;;0.50;0.50;;;11.40;99.90;;;;;;7391094;19;20135;-80
2023/12/29 06:44:59;;;;;;;0.73;0.70;;;11.40;99.90;;;;;;7392759;19;20159;-80
2023/12/29 06:47:25;;;;;;;1.47;0.77;;;11.30;99.90;;;;;;7390380;19;20526;-79
2023/12/29 06:49:50;;;;;;;1.10;0.77;;;11.20;99.90;;;;;;7392193;19;20150;-79
2023/12/29 06:52:17;;;;;;;0.57;0.57;;;11.20;99.90;;;;;;7390170;19;20605;-79
2023/12/29 06:54:42;;;;;;;0.80;0.60;;;11.30;99.90;;;;;;7390550;19;20170;-80
2023/12/29 06:57:08;;;;;;;1.00;0.90;;;11.30;99.90;;;;;;7390658;19;20655;-80
2023/12/29 06:59:34;;;;;;;0.53;0.53;;;11.20;99.90;;;;;;7391058;19;20153;-80
2023/12/29 07:02:00;;;;;;;0.98;0.82;;;11.30;99.90;;;;;;7390434;19;20206;-79
2023/12/29 07:04:26;;;;;;;0.60;0.57;;;11.20;99.90;;;;;;7390092;19;20193;-80
2023/12/29 07:06:52;;;;;;;0.70;0.70;;;11.10;99.90;;;;;;7389389;19;20126;-79
2023/12/29 07:09:18;;;;;;;0.50;0.50;;;11.10;99.90;;;;;;7389103;19;20134;-79
2023/12/29 07:11:50;;;;;;;0.68;0.60;;;11.10;99.90;;;;;;7391327;19;20163;-79
2023/12/29 07:14:16;;;;;;;0.87;0.67;;;11.20;99.90;;;;;;7388372;19;20154;-79
2023/12/29 07:16:41;;;;;;;0.70;0.50;;;11.30;99.90;;;;;;7386526;19;20138;-77
2023/12/29 07:19:07;;;;;;;0.47;0.40;;;11.20;99.90;;;;;;7392958;19;20146;-76
2023/12/29 07:21:34;;;;;;;0.77;0.77;;;11.30;99.90;;;;;;7393725;19;21535;-76
2023/12/29 07:24:00;;;;;;;0.97;0.60;;;11.30;99.90;;;;;;7392458;19;20880;-75
2023/12/29 07:26:25;;;;;;;1.00;0.90;;;11.20;99.90;;;;;;7390141;19;20131;-76
2023/12/29 07:28:54;;;;;;;0.70;0.70;;;11.30;99.90;;;;;;7392893;19;20171;-76
2023/12/29 07:31:21;;;;;;;2.05;0.90;;;11.30;99.90;;;;;;7394613;19;20127;-76
2023/12/29 07:33:46;;;;;;;1.05;0.68;;;11.40;99.90;;;;;;7395079;19;20162;-75
2023/12/29 07:36:12;;;;;;;0.50;0.50;;;11.30;99.90;;;;;;7393904;19;20505;-76
2023/12/29 07:38:38;;;;;;;0.90;0.55;;;11.40;99.90;;;;;;7394901;19;20479;-77
2023/12/29 07:41:04;;;;;;;0.47;0.47;;;11.30;99.90;;;;;;7393657;19;20159;-75
2023/12/29 07:43:31;;;;;;;0.60;0.60;;;11.30;99.90;;;;;;7392494;19;20248;-75
2023/12/29 07:45:57;;;;;;;0.60;0.60;;;11.40;99.90;;;;;;7392852;19;20150;-76
2023/12/29 07:48:22;;;;;;;0.60;0.60;;;11.30;99.90;;;;;;7393069;19;20173;-76
2023/12/29 07:50:48;;;;;;;0.38;0.38;;;11.40;99.90;;;;;;7393534;19;20146;-75
2023/12/29 07:53:14;;;;;;;0.60;0.60;;;11.40;99.90;;;;;;7393314;19;20603;-77
2023/12/29 07:55:40;;;;;;;0.60;0.50;;;11.50;99.90;;;;;;7393852;19;20142;-75
2023/12/29 07:58:06;;;;;;;0.98;0.75;;;11.50;99.90;;;;;;7393974;19;20138;-76
2023/12/29 08:00:33;;;;;;;0.85;0.60;;;11.50;99.90;;;;;;7392545;19;20202;-76
2023/12/29 08:02:59;;;;;;;0.75;0.60;;;11.40;99.90;;;;;;7391931;19;20142;-75
2023/12/29 08:05:25;;;;;;;0.77;0.70;;;11.40;99.90;;;;;;7391821;19;20154;-75
2023/12/29 08:07:50;;;;;;;0.40;0.40;;;11.60;99.90;;;;;;7392440;19;20154;-75
2023/12/29 08:10:18;;;;;;;0.60;0.60;;;11.60;99.90;;;;;;7391540;19;20151;-76
2023/12/29 08:12:44;;;;;;;0.60;0.60;;;11.50;99.90;;;;;;7391647;19;20158;-76
2023/12/29 08:15:10;;;;;;;0.50;0.50;;;11.60;99.90;;;;;;7392564;19;20135;-75
2023/12/29 08:17:36;;;;;;;0.40;0.40;;;11.60;99.90;;;;;;7392064;19;20143;-75
2023/12/29 08:20:02;;;;;;;0.70;0.70;;;11.70;99.90;;;;;;7392566;19;20134;-75
2023/12/29 08:22:30;;;;;;;1.03;0.80;;;11.70;99.90;;;;;;7391220;19;20135;-75
2023/12/29 08:24:56;;;;;;;1.67;0.98;;;11.60;99.90;;;;;;7391030;19;20460;-75
2023/12/29 08:27:28;;;;;;;1.15;0.88;;;11.50;99.90;;;;;;7391287;19;20147;-76
2023/12/29 08:29:54;;;;;;;0.90;0.60;;;11.50;99.90;;;;;;7390226;19;20227;-75
2023/12/29 08:32:19;;;;;;;0.70;0.70;;;11.60;99.90;;;;;;7391377;19;20114;-75
2023/12/29 08:34:45;;;;;;;0.50;0.50;;;11.70;99.90;;;;;;7391445;19;20143;-76
2023/12/29 08:37:11;;;;;;;0.43;0.43;;;11.60;99.90;;;;;;7390924;19;20246;-75
2023/12/29 08:39:36;;;;;;;0.85;0.60;;;11.70;99.90;;;;;;7391302;19;20148;-75
2023/12/29 08:42:02;;;;;;;0.80;0.75;;;11.80;99.90;;;;;;7390815;19;20134;-75
2023/12/29 08:44:28;;;;;;;1.52;1.20;;;11.70;99.90;;;;;;7389636;19;20150;-76
2023/12/29 08:46:54;;;;;;;1.27;0.80;;;11.80;99.90;;;;;;7393454;19;20227;-76
2023/12/29 08:49:20;;;;;;;0.98;0.70;;;11.80;99.90;;;;;;7390918;19;20159;-76
2023/12/29 08:51:46;;;;;;;0.47;0.47;;;11.70;99.90;;;;;;7390451;19;20127;-75
2023/12/29 08:54:12;;;;;;;1.25;0.70;;;11.60;99.90;;;;;;7390936;19;20171;-74
2023/12/29 08:56:38;;;;;;;1.00;0.88;;;11.70;99.90;;;;;;7391964;19;20248;-75
2023/12/29 08:59:04;;;;;;;0.80;0.80;;;11.80;99.90;;;;;;7392532;19;20226;-74
2023/12/29 09:01:30;;;;;;;2.15;0.70;;;11.80;99.90;;;;;;7390092;19;20162;-75
2023/12/29 09:03:55;;;;;;;1.38;0.98;;;11.80;99.90;;;;;;7389285;19;20210;-75
2023/12/29 09:06:21;;;;;;;0.73;0.60;;;11.80;99.90;;;;;;7389047;19;20192;-73
2023/12/29 09:08:47;;;;;;;0.60;0.60;;;11.80;99.90;;;;;;7390249;19;20139;-75
2023/12/29 09:11:13;;;;;;;1.73;1.00;;;11.80;99.90;;;;;;7390454;19;20134;-75
2023/12/29 09:13:39;;;;;;;1.10;1.00;;;11.70;99.90;;;;;;7392454;19;20226;-75
2023/12/29 09:16:05;;;;;;;0.70;0.70;;;11.70;99.90;;;;;;7389432;19;20636;-73
2023/12/29 09:18:31;;;;;;;0.60;0.60;;;11.80;99.90;;;;;;7389394;19;20143;-73
2023/12/29 09:20:56;;;;;;;0.90;0.70;;;11.90;99.90;;;;;;7390408;19;20167;-76
2023/12/29 09:23:22;;;;;;;1.20;1.00;;;11.90;99.90;;;;;;7390279;19;20203;-76
2023/12/29 09:25:48;;;;;;;1.08;0.63;;;11.90;99.90;;;;;;7390547;19;20162;-75
2023/12/29 09:28:14;;;;;;;0.77;0.77;;;11.90;99.90;;;;;;7390268;19;20135;-75
2023/12/29 09:30:39;;;;;;;0.90;0.70;;;11.90;99.90;;;;;;7389855;19;20486;-74
2023/12/29 09:33:05;;;;;;;0.40;0.40;;;12.00;99.90;;;;;;7389981;19;20226;-76
2023/12/29 09:35:31;;;;;;;0.60;0.60;;;12.00;99.90;;;;;;7390211;19;20229;-75
2023/12/29 09:37:58;;;;;;;1.20;1.00;;;12.30;99.90;;;;;;7388643;19;20142;-74
2023/12/29 09:40:24;;;;;;;0.82;0.82;;;12.20;99.90;;;;;;7387233;19;20156;-76
2023/12/29 09:42:51;;;;;;;1.73;1.33;;;12.20;99.90;;;;;;7390199;19;20472;-75
2023/12/29 09:45:22;;;;;;;0.93;0.63;;;12.30;99.90;;;;;;7390835;19;20156;-74
2023/12/29 09:47:53;;;;;;;0.67;0.53;;;12.20;99.90;;;;;;7390479;19;20129;-74
2023/12/29 09:50:19;;;;;;;1.07;0.97;;;12.20;99.90;;;;;;7389786;19;20141;-75
2023/12/29 09:52:51;;;;;;;0.87;0.87;;;12.30;99.90;;;;;;7388517;19;20225;-75
2023/12/29 09:55:18;;;;;;;2.53;1.53;;;12.40;99.90;;;;;;7387719;19;20135;-74
2023/12/29 09:57:44;;;;;;;1.58;1.27;;;12.10;99.90;;;;;;7388574;19;20187;-75
2023/12/29 10:00:11;;;;;;;0.63;0.43;;;12.10;99.90;;;;;;7387232;19;20197;-75
2023/12/29 10:02:38;;;;;;;1.77;1.47;;;12.00;99.90;;;;;;7390139;19;20914;-75
2023/12/29 10:05:05;;;;;;;1.20;1.10;;;12.20;99.90;;;;;;7387126;19;20197;-75
2023/12/29 10:07:42;;;;;;;0.85;0.70;;;12.30;99.90;;;;;;7391065;19;20159;-75
2023/12/29 10:10:12;;;;;;;1.20;1.10;;;12.30;99.90;;;;;;7388562;19;20134;-76
2023/12/29 10:12:39;;;;;;;0.77;0.77;;;12.30;99.90;;;;;;7389935;19;20131;-75
2023/12/29 10:15:09;;;;;;;0.90;0.90;;;12.30;99.90;;;;;;7387599;19;20146;-75
2023/12/29 10:17:59;;;;;;;0.68;0.68;;;12.40;99.90;;;;;;7389516;19;21066;-74
2023/12/29 10:20:46;;;;;;;1.17;0.90;;;12.40;99.90;;;;;;7389303;19;20138;-75
2023/12/29 10:23:40;;;;;;;0.85;0.85;;;12.50;99.90;;;;;;7383683;19;20134;-74
2023/12/29 10:26:10;;;;;;;0.88;0.63;;;12.60;99.90;;;;;;7387265;19;20218;-75
2023/12/29 10:28:35;;;;;;;0.47;0.47;;;12.50;99.90;;;;;;7387450;19;20186;-74
2023/12/29 10:31:02;;;;;;;1.20;0.50;;;12.40;99.90;;;;;;7388722;19;20643;-74
2023/12/29 10:33:30;;;;;;;0.60;0.60;;;12.40;99.90;;;;;;7387937;19;20225;-74
2023/12/29 10:36:03;;;;;;;0.70;0.63;;;12.40;99.90;;;;;;7387887;19;20134;-74
2023/12/29 10:38:30;;;;;;;0.55;0.45;;;12.40;99.90;;;;;;7386614;19;20131;-75
2023/12/29 10:41:17;;;;;;;0.60;0.40;;;12.50;99.90;;;;;;7384483;19;20286;-75
2023/12/29 10:43:47;;;;;;;0.65;0.52;;;12.50;99.90;;;;;;7383430;19;20141;-74
2023/12/29 10:46:13;;;;;;;0.25;0.25;;;12.50;99.90;;;;;;7387993;19;20134;-74
2023/12/29 10:48:39;;;;;;;0.43;0.43;;;12.60;99.90;;;;;;7385912;19;20217;-74
2023/12/29 10:51:05;;;;;;;0.55;0.55;;;12.60;99.90;;;;;;7386436;19;20157;-74
2023/12/29 10:53:33;;;;;;;0.50;0.50;;;12.60;99.90;;;;;;7394118;19;20214;-75
2023/12/29 10:55:59;;;;;;;0.65;0.65;;;12.60;99.90;;;;;;7394267;19;20143;-75
2023/12/29 10:58:29;;;;;;;0.65;0.50;;;12.50;99.90;;;;;;7394513;19;20131;-75
2023/12/29 11:00:59;;;;;;;0.65;0.60;;;12.50;99.90;;;;;;7393218;19;20138;-75
2023/12/29 11:03:25;;;;;;;0.52;0.52;;;12.70;99.90;;;;;;7394293;19;20583;-74
2023/12/29 11:06:01;;;;;;;0.52;0.52;;;12.80;99.90;;;;;;7394711;19;20707;-75
2023/12/29 11:08:27;;;;;;;1.35;0.95;;;13.00;99.90;;;;;;7394614;19;20502;-75
2023/12/29 11:10:54;;;;;;;0.50;0.50;;;13.10;99.90;;;;;;7394466;19;20210;-75
2023/12/29 11:13:20;;;;;;;0.50;0.50;;;13.10;99.90;;;;;;7393559;19;20153;-75
2023/12/29 11:15:47;;;;;;;0.43;0.40;;;13.00;99.90;;;;;;7393835;19;20867;-74
2023/12/29 11:18:17;;;;;;;2.30;0.65;;;13.00;99.90;;;;;;7393797;19;20226;-74
2023/12/29 11:20:44;;;;;;;2.15;0.77;;;13.00;99.90;;;;;;7393990;19;20560;-75
2023/12/29 11:23:13;;;;;;;0.30;0.30;;;13.00;99.90;;;;;;7397753;19;20560;-75
2023/12/29 11:25:39;;;;;;;0.60;0.40;;;13.10;99.90;;;;;;7394983;19;20636;-75
2023/12/29 11:28:09;;;;;;;0.40;0.40;;;13.10;99.90;;;;;;7394764;19;20498;-74
2023/12/29 11:30:35;;;;;;;0.70;0.65;;;13.20;99.90;;;;;;7393473;19;20139;-75
2023/12/29 11:33:25;;;;;;;1.08;0.60;;;13.20;99.90;;;;;;7396098;19;20235;-74
2023/12/29 11:36:00;;;;;;;0.40;0.40;;;13.30;99.90;;;;;;7392785;19;20162;-74
2023/12/29 11:38:28;;;;;;;0.55;0.50;;;13.30;99.90;;;;;;7396440;19;20490;-74
2023/12/29 11:41:25;;;;;;;0.70;0.50;;;13.20;99.90;;;;;;7397125;19;20202;-74
2023/12/29 11:44:01;;;;;;;0.55;0.47;;;13.10;99.90;;;;;;7391358;19;20150;-76
2023/12/29 11:46:43;;;;;;;2.67;1.75;;;13.10;99.90;;;;;;7395610;19;20178;-75
2023/12/29 11:49:10;;;;;;;0.95;0.60;;;13.20;99.90;;;;;;7392747;19;20154;-75
2023/12/29 11:51:39;;;;;;;0.85;0.40;;;13.00;99.90;;;;;;7395075;19;20131;-76
2023/12/29 11:54:06;;;;;;;3.05;2.03;;;13.00;99.90;;;;;;7396695;19;20659;-76
2023/12/29 11:56:43;;;;;;;1.05;0.68;;;13.10;99.90;;;;;;7394413;19;20535;-76
2023/12/29 11:59:14;;;;;;;0.63;0.50;;;13.10;99.90;;;;;;7396569;19;20138;-76
2023/12/29 12:01:40;;;;;;;0.63;0.63;;;13.30;99.90;;;;;;7397295;19;20137;-75
2023/12/29 12:04:41;;;;;;;0.73;0.60;;;13.30;99.90;;;;;;7389225;19;20178;-75
2023/12/29 12:07:12;;;;;;;0.43;0.43;;;13.30;99.90;;;;;;7393359;19;20153;-75
2023/12/29 12:09:38;;;;;;;0.50;0.28;;;13.20;99.90;;;;;;7394362;19;20135;-75
2023/12/29 12:12:05;;;;;;;0.32;0.32;;;13.20;99.90;;;;;;7393733;19;20452;-75
2023/12/29 12:14:46;;;;;;;0.60;0.60;;;13.30;99.90;;;;;;7394230;19;20185;-75
2023/12/29 12:17:12;;;;;;;0.52;0.30;;;13.30;99.90;;;;;;7395670;19;20127;-75
2023/12/29 12:19:38;;;;;;;0.50;0.50;;;13.50;99.90;;;;;;7393382;19;20153;-75
2023/12/29 12:22:06;;;;;;;0.50;0.50;;;13.30;99.90;;;;;;7394658;19;20142;-75
2023/12/29 12:24:35;;;;;;;0.68;0.40;;;13.20;99.90;;;;;;7392472;19;20135;-75
2023/12/29 12:27:02;;;;;;;1.77;0.80;;;13.40;99.90;;;;;;7393533;19;20139;-75
2023/12/29 12:29:28;;;;;;;0.30;0.30;;;13.40;99.90;;;;;;7391844;19;20185;-75
2023/12/29 12:31:54;;;;;;;0.57;0.50;;;13.50;99.90;;;;;;7390445;19;20147;-75
2023/12/29 12:34:20;;;;;;;0.60;0.60;;;13.40;99.90;;;;;;7394539;19;20149;-75
2023/12/29 12:36:50;;;;;;;0.68;0.65;;;13.50;99.90;;;;;;7391097;19;20146;-75
2023/12/29 12:39:17;;;;;;;0.38;0.38;;;13.50;99.90;;;;;;7393160;19;20127;-75
2023/12/29 12:41:43;;;;;;;0.40;0.40;;;13.60;99.90;;;;;;7394339;19;20130;-75
2023/12/29 12:44:13;;;;;;;0.75;0.60;;;13.50;99.90;;;;;;7389828;19;20134;-75
2023/12/29 12:47:02;;;;;;;0.75;0.68;;;13.50;99.90;;;;;;7394077;19;20127;-76
2023/12/29 12:49:29;;;;;;;0.65;0.60;;;13.70;99.90;;;;;;7392612;19;20167;-75